createdAt,value
2019-03-19T00:00:35.267Z,97.00
2019-03-19T00:03:04.679Z,97.00
2019-03-19T00:05:34.027Z,97.00
2019-03-19T00:08:03.459Z,97.00
2019-03-19T00:10:32.775Z,97.00
2019-03-19T00:13:02.161Z,97.00
2019-03-19T00:15:31.566Z,97.00
2019-03-19T00:18:00.858Z,97.00
2019-03-19T00:20:30.264Z,97.00
2019-03-19T00:22:59.588Z,97.00
2019-03-19T00:25:30.350Z,97.00
2019-03-19T00:27:59.939Z,97.00
2019-03-19T00:30:29.276Z,97.00
2019-03-19T00:32:58.580Z,97.00
2019-03-19T00:35:27.919Z,97.00
2019-03-19T00:37:57.345Z,97.00
2019-03-19T00:40:26.684Z,97.00
2019-03-19T00:42:55.953Z,97.00
2019-03-19T00:45:25.348Z,97.00
2019-03-19T00:47:54.540Z,97.00
2019-03-19T00:50:23.790Z,97.00
2019-03-19T00:52:53.152Z,97.00
2019-03-19T00:55:22.562Z,97.00
2019-03-19T00:57:51.857Z,97.00
2019-03-19T01:00:21.500Z,97.00
2019-03-19T01:02:51.001Z,97.00
2019-03-19T01:05:20.499Z,97.00
2019-03-19T01:07:49.782Z,97.00
2019-03-19T01:10:19.128Z,97.00
2019-03-19T01:12:50.807Z,97.00
2019-03-19T01:15:20.252Z,97.00
2019-03-19T01:17:49.559Z,97.00
2019-03-19T01:20:18.947Z,97.00
2019-03-19T01:22:48.443Z,97.00
2019-03-19T01:25:18.789Z,97.00
2019-03-19T01:27:48.349Z,97.00
2019-03-19T01:30:17.592Z,97.00
2019-03-19T01:32:46.911Z,97.00
2019-03-19T01:35:16.427Z,97.00
2019-03-19T01:37:45.769Z,97.00
2019-03-19T01:40:15.092Z,97.00
2019-03-19T01:42:44.504Z,97.00
2019-03-19T01:45:14.253Z,97.00
2019-03-19T01:47:43.720Z,97.00
2019-03-19T01:50:13.037Z,97.00
2019-03-19T01:52:42.506Z,97.00
2019-03-19T01:55:12.307Z,97.00
2019-03-19T01:57:41.554Z,97.00
2019-03-19T02:00:11.359Z,97.00
2019-03-19T02:02:40.732Z,97.00
2019-03-19T02:05:10.152Z,97.00
2019-03-19T02:07:39.603Z,97.00
2019-03-19T02:10:09.583Z,97.00
2019-03-19T02:12:38.907Z,97.00
2019-03-19T02:15:09.320Z,97.00
2019-03-19T02:17:38.714Z,97.00
2019-03-19T02:20:09.996Z,97.00
2019-03-19T02:22:39.397Z,97.00
2019-03-19T02:25:09.533Z,97.00
2019-03-19T02:27:39.024Z,97.00
2019-03-19T02:30:10.369Z,97.00
2019-03-19T02:32:39.850Z,97.00
2019-03-19T02:35:09.276Z,97.00
2019-03-19T02:37:38.625Z,97.00
2019-03-19T02:40:08.680Z,97.00
2019-03-19T02:42:38.050Z,97.00
2019-03-19T02:45:07.673Z,97.00
2019-03-19T02:47:37.088Z,97.00
2019-03-19T02:50:06.955Z,97.00
2019-03-19T02:52:36.228Z,97.00
2019-03-19T02:55:05.992Z,97.00
2019-03-19T02:57:35.431Z,97.00
2019-03-19T03:00:06.013Z,97.00
2019-03-19T03:02:35.482Z,97.00
2019-03-19T03:05:05.386Z,97.00
2019-03-19T03:07:34.678Z,97.00
2019-03-19T03:10:04.753Z,97.00
2019-03-19T03:12:34.369Z,97.00
2019-03-19T03:15:04.198Z,97.00
2019-03-19T03:17:33.750Z,97.00
2019-03-19T03:20:03.370Z,97.00
2019-03-19T03:22:32.801Z,97.00
2019-03-19T03:25:02.291Z,97.00
2019-03-19T03:27:31.865Z,97.00
2019-03-19T03:30:01.256Z,97.00
2019-03-19T03:32:37.552Z,97.00
2019-03-19T03:35:07.529Z,97.00
2019-03-19T03:37:37.012Z,97.00
2019-03-19T03:40:07.848Z,97.00
2019-03-19T03:42:37.379Z,97.00
2019-03-19T03:45:08.144Z,97.00
2019-03-19T03:47:37.837Z,97.00
2019-03-19T03:50:08.094Z,97.00
2019-03-19T03:52:37.680Z,97.00
2019-03-19T03:55:07.826Z,97.00
2019-03-19T03:57:37.291Z,97.00
2019-03-19T04:00:09.161Z,97.00
2019-03-19T04:02:38.859Z,97.00
2019-03-19T04:05:08.407Z,97.00
2019-03-19T04:07:37.703Z,97.00
2019-03-19T04:10:08.441Z,97.00
2019-03-19T04:12:37.940Z,97.00
2019-03-19T04:15:08.041Z,97.00
2019-03-19T04:17:37.541Z,97.00
2019-03-19T04:20:07.439Z,97.00
2019-03-19T04:22:37.021Z,97.00
2019-03-19T04:25:06.666Z,97.00
2019-03-19T04:27:36.198Z,97.00
2019-03-19T04:30:07.325Z,97.00
2019-03-19T04:32:36.725Z,97.00
2019-03-19T04:35:06.822Z,97.00
2019-03-19T04:37:36.488Z,97.00
2019-03-19T04:40:07.383Z,97.00
2019-03-19T04:42:36.926Z,97.00
2019-03-19T04:45:06.703Z,97.00
2019-03-19T04:47:36.241Z,97.00
2019-03-19T04:50:06.892Z,97.00
2019-03-19T04:52:36.371Z,97.00
2019-03-19T04:55:06.176Z,97.00
2019-03-19T04:57:35.801Z,97.00
2019-03-19T05:00:05.806Z,97.00
2019-03-19T05:02:35.155Z,97.00
2019-03-19T05:05:05.188Z,97.00
2019-03-19T05:07:35.907Z,97.00
2019-03-19T05:10:06.400Z,97.00
2019-03-19T05:12:35.848Z,97.00
2019-03-19T05:15:05.892Z,97.00
2019-03-19T05:17:35.591Z,97.00
2019-03-19T05:20:05.341Z,97.00
2019-03-19T05:22:34.759Z,97.00
2019-03-19T05:25:04.425Z,97.00
2019-03-19T05:27:37.713Z,97.00
2019-03-19T05:30:06.249Z,97.00
2019-03-19T05:32:35.788Z,97.00
2019-03-19T05:35:05.659Z,97.00
2019-03-19T05:37:35.444Z,97.00
2019-03-19T05:40:05.432Z,97.00
2019-03-19T05:42:34.971Z,97.00
2019-03-19T05:45:05.151Z,97.00
2019-03-19T05:47:38.256Z,97.00
2019-03-19T05:50:06.820Z,97.00
2019-03-19T05:52:36.155Z,97.00
2019-03-19T05:55:05.762Z,97.00
2019-03-19T05:57:35.263Z,97.00
2019-03-19T06:00:05.847Z,97.00
2019-03-19T06:02:35.131Z,97.00
2019-03-19T06:05:04.830Z,97.00
2019-03-19T06:07:34.136Z,97.00
2019-03-19T06:10:03.456Z,97.00
2019-03-19T06:12:32.886Z,97.00
2019-03-19T06:15:02.133Z,97.00
2019-03-19T06:17:31.529Z,97.00
2019-03-19T06:20:00.760Z,97.00
2019-03-19T06:22:30.072Z,97.00
2019-03-19T06:24:59.452Z,97.00
2019-03-19T06:27:28.790Z,97.00
2019-03-19T06:29:58.206Z,97.00
2019-03-19T06:32:27.601Z,97.00
2019-03-19T06:34:56.825Z,97.00
2019-03-19T06:37:26.224Z,97.00
2019-03-19T06:39:55.472Z,97.00
2019-03-19T06:42:24.742Z,97.00
2019-03-19T06:44:54.135Z,97.00
2019-03-19T06:47:23.423Z,97.00
2019-03-19T06:49:52.678Z,97.00
2019-03-19T06:52:22.032Z,97.00
2019-03-19T06:54:51.385Z,97.00
2019-03-19T06:57:20.683Z,97.00
2019-03-19T06:59:50.141Z,97.00
2019-03-19T07:02:19.518Z,97.00
2019-03-19T07:04:48.882Z,97.00
2019-03-19T07:07:18.092Z,97.00
2019-03-19T07:09:47.518Z,97.00
2019-03-19T07:12:16.850Z,97.00
2019-03-19T07:14:46.168Z,97.00
2019-03-19T07:17:15.583Z,97.00
2019-03-19T07:19:44.782Z,97.00
2019-03-19T07:22:14.078Z,97.00
2019-03-19T07:24:43.469Z,97.00
2019-03-19T07:27:12.830Z,97.00
2019-03-19T07:29:42.206Z,97.00
2019-03-19T07:32:11.548Z,97.00
2019-03-19T07:34:40.861Z,97.00
2019-03-19T07:37:10.213Z,97.00
2019-03-19T07:39:39.569Z,97.00
2019-03-19T07:42:08.903Z,97.00
2019-03-19T07:44:38.444Z,97.00
2019-03-19T07:47:07.702Z,97.00
2019-03-19T07:49:40.198Z,97.00
2019-03-19T07:52:09.562Z,97.00
2019-03-19T07:54:39.074Z,97.00
2019-03-19T07:57:08.118Z,97.00
2019-03-19T07:59:39.962Z,97.00
2019-03-19T08:02:09.238Z,97.00
2019-03-19T08:04:38.737Z,97.00
2019-03-19T08:07:08.007Z,97.00
2019-03-19T08:09:37.527Z,97.00
2019-03-19T08:12:06.888Z,97.00
2019-03-19T08:14:36.153Z,97.00
2019-03-19T08:17:05.522Z,97.00
2019-03-19T08:19:35.010Z,97.00
2019-03-19T08:22:04.285Z,97.00
2019-03-19T08:24:33.648Z,97.00
2019-03-19T08:27:02.935Z,97.00
2019-03-19T08:29:34.607Z,97.00
2019-03-19T08:32:03.303Z,97.00
2019-03-19T08:34:32.541Z,97.00
2019-03-19T08:37:01.946Z,97.00
2019-03-19T08:39:31.204Z,97.00
2019-03-19T08:42:00.558Z,97.00
2019-03-19T08:44:29.850Z,97.00
2019-03-19T08:46:59.157Z,97.00
2019-03-19T08:49:28.515Z,97.00
2019-03-19T08:51:57.904Z,97.00
2019-03-19T08:54:27.171Z,97.00
2019-03-19T08:56:56.530Z,97.00
2019-03-19T08:59:25.778Z,97.00
2019-03-19T09:01:55.087Z,97.00
2019-03-19T09:04:24.682Z,97.00
2019-03-19T09:06:53.906Z,97.00
2019-03-19T09:09:23.132Z,97.00
2019-03-19T09:11:52.484Z,97.00
2019-03-19T09:14:21.813Z,97.00
2019-03-19T09:16:51.147Z,97.00
2019-03-19T09:19:20.414Z,97.00
2019-03-19T09:21:49.681Z,97.00
2019-03-19T09:24:19.040Z,97.00
2019-03-19T09:26:48.247Z,97.00
2019-03-19T09:29:17.621Z,97.00
2019-03-19T09:31:46.972Z,97.00
2019-03-19T09:34:16.248Z,97.00
2019-03-19T09:36:45.707Z,97.00
2019-03-19T09:39:15.039Z,97.00
2019-03-19T09:41:44.219Z,97.00
2019-03-19T09:44:13.540Z,97.00
2019-03-19T09:46:42.815Z,97.00
2019-03-19T09:49:12.199Z,97.00
2019-03-19T09:51:41.569Z,97.00
2019-03-19T09:54:10.956Z,97.00
2019-03-19T09:56:40.216Z,97.00
2019-03-19T09:59:09.512Z,97.00
2019-03-19T10:01:38.707Z,97.00
2019-03-19T10:04:08.180Z,97.00
2019-03-19T10:06:37.507Z,97.00
2019-03-19T10:09:08.756Z,97.00
2019-03-19T10:11:38.080Z,97.00
2019-03-19T10:14:07.384Z,97.00
2019-03-19T10:16:36.806Z,97.00
2019-03-19T10:19:06.048Z,97.00
2019-03-19T10:21:35.445Z,97.00
2019-03-19T10:24:04.995Z,97.00
2019-03-19T10:26:34.178Z,97.00
2019-03-19T10:29:03.600Z,97.00
2019-03-19T10:31:32.944Z,97.00
2019-03-19T10:34:02.237Z,97.00
2019-03-19T10:36:31.652Z,97.00
2019-03-19T10:39:01.048Z,97.00
2019-03-19T10:41:30.468Z,97.00
2019-03-19T10:43:59.873Z,97.00
2019-03-19T10:46:31.903Z,97.00
2019-03-19T10:49:01.292Z,97.00
2019-03-19T10:51:30.727Z,97.00
2019-03-19T10:54:00.142Z,97.00
2019-03-19T10:56:29.472Z,97.00
2019-03-19T10:58:58.918Z,97.00
2019-03-19T11:01:28.370Z,97.00
2019-03-19T11:03:57.814Z,97.00
2019-03-19T11:06:27.224Z,97.00
2019-03-19T11:08:57.836Z,97.00
2019-03-19T11:11:27.180Z,97.00
2019-03-19T11:13:56.539Z,97.00
2019-03-19T11:16:25.920Z,96.90
2019-03-19T11:18:55.243Z,97.00
2019-03-19T11:21:24.469Z,96.80
2019-03-19T11:23:53.855Z,97.00
2019-03-19T11:26:23.195Z,97.00
2019-03-19T11:28:52.517Z,97.00
2019-03-19T11:31:21.907Z,97.00
2019-03-19T11:33:51.250Z,97.00
2019-03-19T11:36:20.627Z,97.00
2019-03-19T11:38:49.909Z,97.00
2019-03-19T11:41:19.260Z,97.00
2019-03-19T11:43:48.683Z,97.00
2019-03-19T11:46:18.014Z,97.00
2019-03-19T11:48:47.413Z,97.00
2019-03-19T11:51:16.765Z,97.00
2019-03-19T11:53:46.006Z,97.00
2019-03-19T11:56:15.445Z,97.00
2019-03-19T11:58:44.974Z,96.70
2019-03-19T12:01:14.378Z,97.00
2019-03-19T12:03:43.777Z,96.80
2019-03-19T12:06:13.297Z,96.90
2019-03-19T12:08:42.715Z,97.00
2019-03-19T12:11:12.149Z,97.00
2019-03-19T12:13:43.755Z,97.00
2019-03-19T12:16:13.299Z,97.00
2019-03-19T12:18:42.679Z,97.00
2019-03-19T12:21:12.117Z,97.00
2019-03-19T12:23:41.494Z,97.00
2019-03-19T12:26:10.853Z,97.00
2019-03-19T12:28:40.251Z,97.00
2019-03-19T12:31:09.605Z,95.70
2019-03-19T12:33:41.104Z,95.20
2019-03-19T12:36:09.949Z,94.30
2019-03-19T12:38:39.237Z,92.70
2019-03-19T12:41:08.585Z,92.90
2019-03-19T12:43:37.994Z,91.90
2019-03-19T12:46:07.307Z,90.70
2019-03-19T12:48:36.690Z,91.00
2019-03-19T12:51:06.023Z,90.10
2019-03-19T12:53:35.337Z,90.10
2019-03-19T12:56:04.724Z,90.00
2019-03-19T12:58:33.971Z,91.10
2019-03-19T13:01:03.400Z,91.60
2019-03-19T13:03:32.826Z,92.20
2019-03-19T13:06:02.093Z,91.20
2019-03-19T13:08:31.549Z,92.20
2019-03-19T13:11:00.894Z,94.30
2019-03-19T13:13:30.233Z,94.70
2019-03-19T13:15:59.804Z,94.90
2019-03-19T13:18:29.157Z,94.50
2019-03-19T13:20:58.494Z,94.60
2019-03-19T13:23:27.842Z,92.50
2019-03-19T13:25:57.250Z,90.30
2019-03-19T13:28:26.629Z,87.40
2019-03-19T13:30:56.044Z,85.50
2019-03-19T13:33:25.330Z,83.40
2019-03-19T13:35:54.695Z,83.30
2019-03-19T13:38:23.895Z,84.20
2019-03-19T13:40:53.321Z,85.80
2019-03-19T13:43:22.605Z,87.00
2019-03-19T13:45:51.975Z,88.20
2019-03-19T13:48:21.410Z,89.30
2019-03-19T13:50:50.973Z,90.00
2019-03-19T13:53:20.422Z,90.00
2019-03-19T13:55:49.796Z,88.90
2019-03-19T13:58:19.043Z,87.60
2019-03-19T14:00:55.631Z,88.20
2019-03-19T14:03:19.472Z,88.90
2019-03-19T14:05:48.830Z,89.50
2019-03-19T14:08:18.269Z,89.00
2019-03-19T14:10:47.614Z,89.90
2019-03-19T14:13:16.973Z,89.10
2019-03-19T14:15:46.370Z,88.80
2019-03-19T14:18:15.737Z,87.30
2019-03-19T14:20:45.111Z,86.80
2019-03-19T14:23:14.456Z,84.80
2019-03-19T14:25:43.942Z,81.70
2019-03-19T14:28:13.215Z,79.40
2019-03-19T14:30:42.739Z,78.60
2019-03-19T14:33:12.161Z,76.80
2019-03-19T14:35:41.504Z,76.00
2019-03-19T14:38:10.882Z,75.00
2019-03-19T14:40:40.234Z,75.10
2019-03-19T14:43:09.471Z,74.50
2019-03-19T14:45:38.906Z,74.00
2019-03-19T14:48:08.194Z,74.20
2019-03-19T14:50:37.449Z,73.50
2019-03-19T14:53:07.091Z,74.80
2019-03-19T14:55:36.702Z,75.10
2019-03-19T14:58:06.374Z,74.80
2019-03-19T15:00:36.057Z,75.30
2019-03-19T15:03:05.591Z,77.10
2019-03-19T15:05:34.992Z,78.30
2019-03-19T15:08:04.339Z,80.20
2019-03-19T15:10:33.635Z,81.20
2019-03-19T15:13:03.017Z,82.80
2019-03-19T15:15:32.297Z,83.60
2019-03-19T15:18:01.598Z,84.00
2019-03-19T15:20:30.989Z,82.10
2019-03-19T15:23:00.285Z,79.70
2019-03-19T15:25:29.562Z,77.90
2019-03-19T15:27:58.892Z,77.30
2019-03-19T15:30:28.198Z,77.20
2019-03-19T15:32:57.589Z,78.00
2019-03-19T15:35:26.789Z,77.10
2019-03-19T15:37:56.180Z,77.00
2019-03-19T15:40:25.576Z,77.90
2019-03-19T15:42:54.898Z,78.60
2019-03-19T15:45:24.279Z,79.80
2019-03-19T15:47:53.613Z,81.00
2019-03-19T15:50:22.897Z,82.30
2019-03-19T15:52:52.152Z,83.30
2019-03-19T15:55:21.501Z,83.60
2019-03-19T15:57:50.926Z,84.00
2019-03-19T16:00:20.290Z,84.10
2019-03-19T16:02:49.546Z,82.30
2019-03-19T16:05:19.088Z,80.70
2019-03-19T16:07:48.438Z,78.60
2019-03-19T16:10:17.815Z,77.10
2019-03-19T16:12:47.266Z,76.40
2019-03-19T16:15:16.579Z,75.70
2019-03-19T16:17:45.885Z,74.80
2019-03-19T16:20:15.549Z,74.50
2019-03-19T16:22:44.803Z,74.70
2019-03-19T16:25:14.337Z,75.00
2019-03-19T16:27:43.662Z,75.40
2019-03-19T16:30:14.070Z,76.30
2019-03-19T16:32:43.714Z,77.10
2019-03-19T16:35:13.210Z,79.50
2019-03-19T16:37:42.695Z,80.40
2019-03-19T16:40:14.731Z,81.30
2019-03-19T16:42:44.078Z,82.50
2019-03-19T16:45:13.613Z,83.00
2019-03-19T16:47:42.941Z,84.10
2019-03-19T16:50:13.274Z,84.70
2019-03-19T16:52:42.658Z,85.50
2019-03-19T16:55:12.328Z,86.20
2019-03-19T16:57:41.745Z,87.50
2019-03-19T17:00:13.569Z,89.10
2019-03-19T17:02:42.815Z,90.30
2019-03-19T17:05:12.245Z,91.30
2019-03-19T17:07:41.704Z,92.10
2019-03-19T17:10:12.156Z,92.60
2019-03-19T17:12:42.079Z,93.10
2019-03-19T17:15:11.822Z,93.30
2019-03-19T17:17:41.309Z,93.90
2019-03-19T17:20:11.823Z,94.20
2019-03-19T17:22:41.183Z,94.80
2019-03-19T17:25:13.320Z,95.30
2019-03-19T17:27:42.695Z,96.00
2019-03-19T17:30:17.276Z,96.40
2019-03-19T17:32:46.847Z,97.00
2019-03-19T17:35:16.187Z,97.00
2019-03-19T17:37:45.608Z,97.00
2019-03-19T17:40:15.152Z,97.00
2019-03-19T17:42:44.540Z,97.00
2019-03-19T17:45:14.052Z,97.00
2019-03-19T17:47:43.395Z,97.00
2019-03-19T17:50:15.189Z,97.00
2019-03-19T17:52:44.722Z,97.00
2019-03-19T17:55:14.172Z,97.00
2019-03-19T17:57:43.548Z,97.00
2019-03-19T18:00:15.769Z,97.00
2019-03-19T18:02:45.224Z,97.00
2019-03-19T18:05:14.608Z,97.00
2019-03-19T18:07:44.003Z,97.00
2019-03-19T18:10:13.560Z,97.00
2019-03-19T18:12:42.972Z,97.00
2019-03-19T18:15:12.335Z,97.00
2019-03-19T18:17:41.675Z,97.00
2019-03-19T18:20:11.252Z,97.00
2019-03-19T18:22:40.568Z,97.00
2019-03-19T18:25:10.288Z,97.00
2019-03-19T18:27:39.705Z,97.00
2019-03-19T18:30:11.191Z,97.00
2019-03-19T18:32:41.104Z,97.00
2019-03-19T18:35:10.511Z,97.00
2019-03-19T18:37:39.809Z,97.00
2019-03-19T18:40:09.382Z,97.00
2019-03-19T18:42:44.714Z,97.00
2019-03-19T18:45:14.294Z,97.00
2019-03-19T18:47:45.476Z,97.00
2019-03-19T18:50:15.290Z,97.00
2019-03-19T18:52:47.364Z,97.00
2019-03-19T18:55:17.513Z,97.00
2019-03-19T18:57:49.196Z,97.00
2019-03-19T19:00:18.701Z,97.00
2019-03-19T19:02:50.376Z,97.00
2019-03-19T19:05:19.559Z,97.00
2019-03-19T19:07:50.101Z,97.00
2019-03-19T19:10:21.393Z,97.00
2019-03-19T19:12:51.698Z,97.00
2019-03-19T19:15:20.965Z,97.00
2019-03-19T19:17:50.356Z,97.00
2019-03-19T19:20:21.513Z,97.00
2019-03-19T19:22:51.011Z,97.00
2019-03-19T19:25:20.478Z,97.00
2019-03-19T19:27:50.020Z,97.00
2019-03-19T19:30:19.743Z,97.00
2019-03-19T19:33:00.454Z,97.00
2019-03-19T19:35:21.932Z,97.00
2019-03-19T19:37:51.857Z,97.00
2019-03-19T19:40:21.258Z,97.00
2019-03-19T19:42:53.017Z,97.00
2019-03-19T19:45:24.003Z,97.00
2019-03-19T19:47:53.601Z,97.00
2019-03-19T19:50:23.010Z,97.00
2019-03-19T19:52:52.392Z,97.00
2019-03-19T19:55:21.961Z,97.00
2019-03-19T19:57:51.782Z,97.00
2019-03-19T20:00:21.121Z,97.00
2019-03-19T20:02:50.722Z,97.00
2019-03-19T20:05:20.114Z,97.00
2019-03-19T20:07:49.738Z,97.00
2019-03-19T20:10:19.160Z,97.00
2019-03-19T20:12:48.599Z,97.00
2019-03-19T20:15:18.176Z,97.00
2019-03-19T20:17:47.701Z,97.00
2019-03-19T20:20:18.035Z,97.00
2019-03-19T20:22:47.508Z,97.00
2019-03-19T20:25:17.123Z,97.00
2019-03-19T20:27:46.700Z,97.00
2019-03-19T20:30:18.033Z,97.00
2019-03-19T20:32:47.519Z,97.00
2019-03-19T20:35:16.979Z,97.00
2019-03-19T20:37:46.392Z,97.00
2019-03-19T20:40:15.898Z,97.00
2019-03-19T20:42:45.537Z,97.00
2019-03-19T20:45:16.154Z,97.00
2019-03-19T20:47:45.606Z,97.00
2019-03-19T20:50:18.074Z,97.00
2019-03-19T20:52:47.480Z,97.00
2019-03-19T20:55:16.992Z,97.00
2019-03-19T20:57:46.444Z,97.00
2019-03-19T21:00:16.783Z,97.00
2019-03-19T21:02:46.694Z,97.00
2019-03-19T21:05:17.543Z,97.00
2019-03-19T21:07:47.146Z,97.00
2019-03-19T21:10:17.903Z,97.00
2019-03-19T21:12:47.385Z,97.00
2019-03-19T21:15:32.719Z,97.00
2019-03-19T21:18:02.134Z,97.00
2019-03-19T21:20:32.456Z,97.00
2019-03-19T21:23:01.897Z,97.00
2019-03-19T21:25:31.721Z,97.00
2019-03-19T21:28:01.102Z,97.00
2019-03-19T21:30:30.530Z,97.00
2019-03-19T21:32:59.968Z,97.00
2019-03-19T21:35:29.467Z,97.00
2019-03-19T21:37:58.942Z,97.00
2019-03-19T21:40:28.332Z,97.00
2019-03-19T21:42:57.922Z,97.00
2019-03-19T21:45:27.479Z,97.00
2019-03-19T21:47:57.004Z,97.00
2019-03-19T21:50:26.654Z,97.00
2019-03-19T21:52:56.113Z,97.00
2019-03-19T21:55:25.511Z,97.00
2019-03-19T21:57:54.949Z,97.00
2019-03-19T22:00:24.434Z,97.00
2019-03-19T22:02:54.149Z,97.00
2019-03-19T22:05:23.563Z,97.00
2019-03-19T22:07:53.333Z,97.00
2019-03-19T22:10:22.782Z,97.00
2019-03-19T22:12:52.110Z,97.00
2019-03-19T22:15:21.620Z,97.00
2019-03-19T22:17:51.301Z,97.00
2019-03-19T22:20:20.721Z,97.00
2019-03-19T22:24:00.764Z,97.00
2019-03-19T22:26:30.161Z,97.00
2019-03-19T22:28:59.512Z,97.00
2019-03-19T22:31:28.903Z,97.00
2019-03-19T22:33:58.103Z,97.00
2019-03-19T22:36:27.535Z,97.00
2019-03-19T22:38:56.859Z,97.00
2019-03-19T22:41:26.308Z,97.00
2019-03-19T22:43:55.756Z,97.00
2019-03-19T22:46:25.135Z,97.00
2019-03-19T22:48:54.556Z,97.00
2019-03-19T22:51:23.987Z,97.00
2019-03-19T22:53:53.220Z,97.00
2019-03-19T22:56:22.667Z,97.00
2019-03-19T22:58:51.957Z,97.00
2019-03-19T23:01:21.236Z,97.00
2019-03-19T23:03:50.575Z,97.00
2019-03-19T23:06:19.894Z,97.00
2019-03-19T23:08:49.079Z,97.00
2019-03-19T23:11:18.884Z,97.00
2019-03-19T23:13:48.755Z,97.00
2019-03-19T23:16:18.076Z,97.00
2019-03-19T23:18:47.334Z,97.00
2019-03-19T23:21:16.669Z,97.00
2019-03-19T23:23:45.987Z,97.00
2019-03-19T23:26:15.298Z,97.00
2019-03-19T23:28:44.813Z,97.00
2019-03-19T23:31:14.240Z,97.00
2019-03-19T23:33:43.549Z,97.00
2019-03-19T23:36:13.007Z,97.00
2019-03-19T23:38:42.278Z,97.00
2019-03-19T23:41:11.711Z,97.00
2019-03-19T23:43:41.027Z,97.00
2019-03-19T23:46:10.379Z,97.00
2019-03-19T23:48:39.688Z,97.00
2019-03-19T23:51:09.084Z,97.00
2019-03-19T23:53:38.400Z,97.00
2019-03-19T23:56:07.661Z,97.00
2019-03-19T23:58:37.060Z,97.00
